sensor_id;sensor_type;location;lat;lon;timestamp;temperature;humidity
10583;DHT22;33679;51.218;6.786;2022-11-20T00:01:45;9.00;99.90
10583;DHT22;33679;51.218;6.786;2022-11-20T00:04:12;9.00;99.90
10583;DHT22;33679;51.218;6.786;2022-11-20T00:06:41;9.00;99.90
10583;DHT22;33679;51.218;6.786;2022-11-20T00:09:10;9.00;99.90
10583;DHT22;33679;51.218;6.786;2022-11-20T00:11:37;9.00;99.90
10583;DHT22;33679;51.218;6.786;2022-11-20T00:14:04;9.10;99.90
10583;DHT22;33679;51.218;6.786;2022-11-20T00:16:32;9.10;99.90
10583;DHT22;33679;51.218;6.786;2022-11-20T00:19:02;9.10;99.90
10583;DHT22;33679;51.218;6.786;2022-11-20T00:21:31;9.10;99.90
10583;DHT22;33679;51.218;6.786;2022-11-20T00:24:00;9.10;99.90
10583;DHT22;33679;51.218;6.786;2022-11-20T00:26:32;9.10;99.90
10583;DHT22;33679;51.218;6.786;2022-11-20T00:29:00;9.10;99.90
10583;DHT22;33679;51.218;6.786;2022-11-20T00:31:30;9.10;99.90
10583;DHT22;33679;51.218;6.786;2022-11-20T00:33:59;9.10;99.90
10583;DHT22;33679;51.218;6.786;2022-11-20T00:36:28;9.10;99.90
10583;DHT22;33679;51.218;6.786;2022-11-20T00:39:00;9.10;99.90
10583;DHT22;33679;51.218;6.786;2022-11-20T00:41:30;9.00;99.90
10583;DHT22;33679;51.218;6.786;2022-11-20T00:43:58;9.00;99.90
10583;DHT22;33679;51.218;6.786;2022-11-20T00:46:26;9.00;99.90
10583;DHT22;33679;51.218;6.786;2022-11-20T00:49:00;9.00;99.90
10583;DHT22;33679;51.218;6.786;2022-11-20T00:51:28;9.10;99.90
10583;DHT22;33679;51.218;6.786;2022-11-20T00:53:57;9.10;99.90
10583;DHT22;33679;51.218;6.786;2022-11-20T00:56:31;9.10;99.90
10583;DHT22;33679;51.218;6.786;2022-11-20T00:59:00;9.00;99.90
10583;DHT22;33679;51.218;6.786;2022-11-20T01:01:30;9.00;99.90
10583;DHT22;33679;51.218;6.786;2022-11-20T01:03:59;9.10;99.90
10583;DHT22;33679;51.218;6.786;2022-11-20T01:06:28;9.00;99.90
10583;DHT22;33679;51.218;6.786;2022-11-20T01:08:58;9.00;99.90
10583;DHT22;33679;51.218;6.786;2022-11-20T01:11:27;9.00;99.90
10583;DHT22;33679;51.218;6.786;2022-11-20T01:13:57;9.00;99.90
10583;DHT22;33679;51.218;6.786;2022-11-20T01:16:29;9.00;99.90
10583;DHT22;33679;51.218;6.786;2022-11-20T01:18:58;9.00;99.90
10583;DHT22;33679;51.218;6.786;2022-11-20T01:21:27;9.00;99.90
10583;DHT22;33679;51.218;6.786;2022-11-20T01:23:55;9.00;99.90
10583;DHT22;33679;51.218;6.786;2022-11-20T01:26:25;9.00;99.90
10583;DHT22;33679;51.218;6.786;2022-11-20T01:28:53;9.10;99.90
10583;DHT22;33679;51.218;6.786;2022-11-20T01:31:25;9.10;99.90
10583;DHT22;33679;51.218;6.786;2022-11-20T01:33:53;9.10;99.90
10583;DHT22;33679;51.218;6.786;2022-11-20T01:36:22;9.10;99.90
10583;DHT22;33679;51.218;6.786;2022-11-20T01:38:51;9.10;99.90
10583;DHT22;33679;51.218;6.786;2022-11-20T01:41:19;9.10;99.90
10583;DHT22;33679;51.218;6.786;2022-11-20T01:44:01;9.10;99.90
10583;DHT22;33679;51.218;6.786;2022-11-20T01:46:31;9.10;99.90
10583;DHT22;33679;51.218;6.786;2022-11-20T01:49:00;9.10;99.90
10583;DHT22;33679;51.218;6.786;2022-11-20T01:51:32;9.10;99.90
10583;DHT22;33679;51.218;6.786;2022-11-20T01:54:02;9.10;99.90
10583;DHT22;33679;51.218;6.786;2022-11-20T01:56:34;9.10;99.90
10583;DHT22;33679;51.218;6.786;2022-11-20T01:59:04;9.10;99.90
10583;DHT22;33679;51.218;6.786;2022-11-20T02:01:34;9.10;99.90
10583;DHT22;33679;51.218;6.786;2022-11-20T02:04:01;9.10;99.90
10583;DHT22;33679;51.218;6.786;2022-11-20T02:06:30;9.10;99.90
10583;DHT22;33679;51.218;6.786;2022-11-20T02:08:59;9.00;99.90
10583;DHT22;33679;51.218;6.786;2022-11-20T02:11:30;9.00;99.90
10583;DHT22;33679;51.218;6.786;2022-11-20T02:13:57;9.00;99.90
10583;DHT22;33679;51.218;6.786;2022-11-20T02:16:30;9.00;99.90
10583;DHT22;33679;51.218;6.786;2022-11-20T02:19:00;9.00;99.90
10583;DHT22;33679;51.218;6.786;2022-11-20T02:21:34;9.00;99.90
10583;DHT22;33679;51.218;6.786;2022-11-20T02:24:09;9.00;99.90
10583;DHT22;33679;51.218;6.786;2022-11-20T02:26:44;9.00;99.90
10583;DHT22;33679;51.218;6.786;2022-11-20T02:29:15;9.00;99.90
10583;DHT22;33679;51.218;6.786;2022-11-20T02:31:44;9.00;99.90
10583;DHT22;33679;51.218;6.786;2022-11-20T02:34:12;8.90;99.90
10583;DHT22;33679;51.218;6.786;2022-11-20T02:36:41;8.90;99.90
10583;DHT22;33679;51.218;6.786;2022-11-20T02:39:11;8.90;99.90
10583;DHT22;33679;51.218;6.786;2022-11-20T02:41:42;8.80;99.90
10583;DHT22;33679;51.218;6.786;2022-11-20T02:44:09;8.80;99.90
10583;DHT22;33679;51.218;6.786;2022-11-20T02:46:39;8.80;99.90
10583;DHT22;33679;51.218;6.786;2022-11-20T02:49:06;8.80;99.90
10583;DHT22;33679;51.218;6.786;2022-11-20T02:51:33;8.80;99.90
10583;DHT22;33679;51.218;6.786;2022-11-20T02:54:01;8.80;99.90
10583;DHT22;33679;51.218;6.786;2022-11-20T02:56:30;8.70;99.90
10583;DHT22;33679;51.218;6.786;2022-11-20T02:58:57;8.70;99.90
10583;DHT22;33679;51.218;6.786;2022-11-20T03:01:25;8.70;99.90
10583;DHT22;33679;51.218;6.786;2022-11-20T03:03:52;8.70;99.90
10583;DHT22;33679;51.218;6.786;2022-11-20T03:06:20;8.70;99.90
10583;DHT22;33679;51.218;6.786;2022-11-20T03:08:48;8.60;99.90
10583;DHT22;33679;51.218;6.786;2022-11-20T03:11:15;8.60;99.90
10583;DHT22;33679;51.218;6.786;2022-11-20T03:13:44;8.60;99.90
10583;DHT22;33679;51.218;6.786;2022-11-20T03:16:12;8.60;99.90
10583;DHT22;33679;51.218;6.786;2022-11-20T03:18:42;8.60;99.90
10583;DHT22;33679;51.218;6.786;2022-11-20T03:21:11;8.60;99.90
10583;DHT22;33679;51.218;6.786;2022-11-20T03:23:39;8.60;99.90
10583;DHT22;33679;51.218;6.786;2022-11-20T03:26:13;8.60;99.90
10583;DHT22;33679;51.218;6.786;2022-11-20T03:28:42;8.70;99.90
10583;DHT22;33679;51.218;6.786;2022-11-20T03:31:13;8.60;99.90
10583;DHT22;33679;51.218;6.786;2022-11-20T03:33:41;8.50;99.90
10583;DHT22;33679;51.218;6.786;2022-11-20T03:36:11;8.50;99.90
10583;DHT22;33679;51.218;6.786;2022-11-20T03:38:39;8.50;99.90
10583;DHT22;33679;51.218;6.786;2022-11-20T03:41:09;8.50;99.90
10583;DHT22;33679;51.218;6.786;2022-11-20T03:43:37;8.50;99.90
10583;DHT22;33679;51.218;6.786;2022-11-20T03:46:05;8.40;99.90
10583;DHT22;33679;51.218;6.786;2022-11-20T03:48:34;8.40;99.90
10583;DHT22;33679;51.218;6.786;2022-11-20T03:51:09;8.50;99.90
10583;DHT22;33679;51.218;6.786;2022-11-20T03:53:37;8.50;99.90
10583;DHT22;33679;51.218;6.786;2022-11-20T03:56:07;8.50;99.90
10583;DHT22;33679;51.218;6.786;2022-11-20T03:58:34;8.50;99.90
10583;DHT22;33679;51.218;6.786;2022-11-20T04:01:06;8.60;99.90
10583;DHT22;33679;51.218;6.786;2022-11-20T04:03:36;8.60;99.90
10583;DHT22;33679;51.218;6.786;2022-11-20T04:06:07;8.60;99.90
10583;DHT22;33679;51.218;6.786;2022-11-20T04:08:34;8.60;99.90
10583;DHT22;33679;51.218;6.786;2022-11-20T04:11:09;8.60;99.90
10583;DHT22;33679;51.218;6.786;2022-11-20T04:13:36;8.60;99.90
10583;DHT22;33679;51.218;6.786;2022-11-20T04:16:07;8.60;99.90
10583;DHT22;33679;51.218;6.786;2022-11-20T04:18:36;8.70;99.90
10583;DHT22;33679;51.218;6.786;2022-11-20T04:21:04;8.60;99.90
10583;DHT22;33679;51.218;6.786;2022-11-20T04:23:31;8.60;99.90
10583;DHT22;33679;51.218;6.786;2022-11-20T04:26:01;8.60;99.90
10583;DHT22;33679;51.218;6.786;2022-11-20T04:28:29;8.60;99.90
10583;DHT22;33679;51.218;6.786;2022-11-20T04:31:05;8.60;99.90
10583;DHT22;33679;51.218;6.786;2022-11-20T04:33:32;8.60;99.90
10583;DHT22;33679;51.218;6.786;2022-11-20T04:36:03;8.60;99.90
10583;DHT22;33679;51.218;6.786;2022-11-20T04:38:32;8.60;99.90
10583;DHT22;33679;51.218;6.786;2022-11-20T04:41:00;8.70;99.90
10583;DHT22;33679;51.218;6.786;2022-11-20T04:43:27;8.60;99.90
10583;DHT22;33679;51.218;6.786;2022-11-20T04:45:56;8.60;99.90
10583;DHT22;33679;51.218;6.786;2022-11-20T04:48:27;8.50;99.90
10583;DHT22;33679;51.218;6.786;2022-11-20T04:50:54;8.50;99.90
10583;DHT22;33679;51.218;6.786;2022-11-20T04:53:23;8.50;99.90
10583;DHT22;33679;51.218;6.786;2022-11-20T04:55:51;8.50;99.90
10583;DHT22;33679;51.218;6.786;2022-11-20T04:58:18;8.40;99.90
10583;DHT22;33679;51.218;6.786;2022-11-20T05:00:48;8.30;99.90
10583;DHT22;33679;51.218;6.786;2022-11-20T05:03:17;8.20;99.90
10583;DHT22;33679;51.218;6.786;2022-11-20T05:05:44;8.20;99.90
10583;DHT22;33679;51.218;6.786;2022-11-20T05:08:11;8.10;99.90
10583;DHT22;33679;51.218;6.786;2022-11-20T05:10:40;8.20;99.90
10583;DHT22;33679;51.218;6.786;2022-11-20T05:13:09;8.10;99.90
10583;DHT22;33679;51.218;6.786;2022-11-20T05:15:36;8.10;99.90
10583;DHT22;33679;51.218;6.786;2022-11-20T05:18:05;8.00;99.90
10583;DHT22;33679;51.218;6.786;2022-11-20T05:20:34;8.00;99.90
10583;DHT22;33679;51.218;6.786;2022-11-20T05:23:02;8.00;99.90
10583;DHT22;33679;51.218;6.786;2022-11-20T05:25:29;8.00;99.90
10583;DHT22;33679;51.218;6.786;2022-11-20T05:27:58;8.00;99.90
10583;DHT22;33679;51.218;6.786;2022-11-20T05:30:25;8.00;99.90
10583;DHT22;33679;51.218;6.786;2022-11-20T05:32:52;8.00;99.90
10583;DHT22;33679;51.218;6.786;2022-11-20T05:35:19;8.00;99.90
10583;DHT22;33679;51.218;6.786;2022-11-20T05:37:47;8.00;99.90
10583;DHT22;33679;51.218;6.786;2022-11-20T05:40:14;8.10;99.90
10583;DHT22;33679;51.218;6.786;2022-11-20T05:42:41;8.10;99.90
10583;DHT22;33679;51.218;6.786;2022-11-20T05:45:13;8.10;99.90
10583;DHT22;33679;51.218;6.786;2022-11-20T05:47:40;8.10;99.90
10583;DHT22;33679;51.218;6.786;2022-11-20T05:50:08;8.20;99.90
10583;DHT22;33679;51.218;6.786;2022-11-20T05:52:35;8.20;99.90
10583;DHT22;33679;51.218;6.786;2022-11-20T05:55:03;8.20;99.90
10583;DHT22;33679;51.218;6.786;2022-11-20T05:57:31;8.30;99.90
10583;DHT22;33679;51.218;6.786;2022-11-20T06:00:01;8.30;99.90
10583;DHT22;33679;51.218;6.786;2022-11-20T06:02:34;8.30;99.90
10583;DHT22;33679;51.218;6.786;2022-11-20T06:05:05;8.30;99.90
10583;DHT22;33679;51.218;6.786;2022-11-20T06:07:32;8.30;99.90
10583;DHT22;33679;51.218;6.786;2022-11-20T06:10:01;8.20;99.90
10583;DHT22;33679;51.218;6.786;2022-11-20T06:12:28;8.20;99.90
10583;DHT22;33679;51.218;6.786;2022-11-20T06:14:57;8.20;99.90
10583;DHT22;33679;51.218;6.786;2022-11-20T06:17:24;8.20;99.90
10583;DHT22;33679;51.218;6.786;2022-11-20T06:19:54;8.30;99.90
10583;DHT22;33679;51.218;6.786;2022-11-20T06:22:23;8.30;99.90
10583;DHT22;33679;51.218;6.786;2022-11-20T06:24:51;8.30;99.90
10583;DHT22;33679;51.218;6.786;2022-11-20T06:27:18;8.40;99.90
10583;DHT22;33679;51.218;6.786;2022-11-20T06:29:45;8.40;99.90
10583;DHT22;33679;51.218;6.786;2022-11-20T06:32:12;8.40;99.90
10583;DHT22;33679;51.218;6.786;2022-11-20T06:34:39;8.40;99.90
10583;DHT22;33679;51.218;6.786;2022-11-20T06:37:08;8.40;99.90
10583;DHT22;33679;51.218;6.786;2022-11-20T06:39:36;8.40;99.90
10583;DHT22;33679;51.218;6.786;2022-11-20T06:42:05;8.40;99.90
10583;DHT22;33679;51.218;6.786;2022-11-20T06:44:32;8.50;99.90
10583;DHT22;33679;51.218;6.786;2022-11-20T06:47:01;8.50;99.90
10583;DHT22;33679;51.218;6.786;2022-11-20T06:49:28;8.50;99.90
10583;DHT22;33679;51.218;6.786;2022-11-20T06:51:56;8.50;99.90
10583;DHT22;33679;51.218;6.786;2022-11-20T06:54:25;8.40;99.90
10583;DHT22;33679;51.218;6.786;2022-11-20T06:56:52;8.40;99.90
10583;DHT22;33679;51.218;6.786;2022-11-20T06:59:19;8.30;99.90
10583;DHT22;33679;51.218;6.786;2022-11-20T07:01:47;8.20;99.90
10583;DHT22;33679;51.218;6.786;2022-11-20T07:04:14;8.20;99.90
10583;DHT22;33679;51.218;6.786;2022-11-20T07:06:41;8.20;99.90
10583;DHT22;33679;51.218;6.786;2022-11-20T07:09:09;8.10;99.90
10583;DHT22;33679;51.218;6.786;2022-11-20T07:11:40;8.10;99.90
10583;DHT22;33679;51.218;6.786;2022-11-20T07:14:07;8.10;99.90
10583;DHT22;33679;51.218;6.786;2022-11-20T07:16:34;8.00;99.90
10583;DHT22;33679;51.218;6.786;2022-11-20T07:19:02;8.00;99.90
10583;DHT22;33679;51.218;6.786;2022-11-20T07:21:29;7.90;99.90
10583;DHT22;33679;51.218;6.786;2022-11-20T07:23:56;8.00;99.90
10583;DHT22;33679;51.218;6.786;2022-11-20T07:26:23;8.00;99.90
10583;DHT22;33679;51.218;6.786;2022-11-20T07:28:52;8.00;99.90
10583;DHT22;33679;51.218;6.786;2022-11-20T07:31:20;8.00;99.90
10583;DHT22;33679;51.218;6.786;2022-11-20T07:33:47;8.00;99.90
10583;DHT22;33679;51.218;6.786;2022-11-20T07:36:14;8.00;99.90
10583;DHT22;33679;51.218;6.786;2022-11-20T07:38:42;8.10;99.90
10583;DHT22;33679;51.218;6.786;2022-11-20T07:41:09;8.10;99.90
10583;DHT22;33679;51.218;6.786;2022-11-20T07:43:37;8.10;99.90
10583;DHT22;33679;51.218;6.786;2022-11-20T07:46:06;8.10;99.90
10583;DHT22;33679;51.218;6.786;2022-11-20T07:48:33;8.10;99.90
10583;DHT22;33679;51.218;6.786;2022-11-20T07:51:01;8.10;99.90
10583;DHT22;33679;51.218;6.786;2022-11-20T07:53:28;8.20;99.90
10583;DHT22;33679;51.218;6.786;2022-11-20T07:55:58;8.20;99.90
10583;DHT22;33679;51.218;6.786;2022-11-20T07:58:26;8.20;99.90
10583;DHT22;33679;51.218;6.786;2022-11-20T08:00:53;8.30;99.90
10583;DHT22;33679;51.218;6.786;2022-11-20T08:03:21;8.40;99.90
10583;DHT22;33679;51.218;6.786;2022-11-20T08:05:50;8.40;99.90
10583;DHT22;33679;51.218;6.786;2022-11-20T08:08:17;8.50;99.90
10583;DHT22;33679;51.218;6.786;2022-11-20T08:10:44;8.50;99.90
10583;DHT22;33679;51.218;6.786;2022-11-20T08:13:12;8.60;99.90
10583;DHT22;33679;51.218;6.786;2022-11-20T08:16:01;8.60;99.90
10583;DHT22;33679;51.218;6.786;2022-11-20T08:18:30;8.70;99.90
10583;DHT22;33679;51.218;6.786;2022-11-20T08:20:57;8.70;99.90
10583;DHT22;33679;51.218;6.786;2022-11-20T08:23:28;8.70;99.90
10583;DHT22;33679;51.218;6.786;2022-11-20T08:25:56;8.80;99.90
10583;DHT22;33679;51.218;6.786;2022-11-20T08:28:23;8.80;99.90
10583;DHT22;33679;51.218;6.786;2022-11-20T08:30:50;8.90;99.90
10583;DHT22;33679;51.218;6.786;2022-11-20T08:33:18;8.90;99.90
10583;DHT22;33679;51.218;6.786;2022-11-20T08:35:49;8.90;99.90
10583;DHT22;33679;51.218;6.786;2022-11-20T08:38:19;8.90;99.90
10583;DHT22;33679;51.218;6.786;2022-11-20T08:40:46;8.90;99.90
10583;DHT22;33679;51.218;6.786;2022-11-20T08:43:38;9.00;99.90
10583;DHT22;33679;51.218;6.786;2022-11-20T08:46:06;9.00;99.90
10583;DHT22;33679;51.218;6.786;2022-11-20T08:48:33;9.00;99.90
10583;DHT22;33679;51.218;6.786;2022-11-20T08:51:02;9.00;99.90
10583;DHT22;33679;51.218;6.786;2022-11-20T08:53:30;9.00;99.90
10583;DHT22;33679;51.218;6.786;2022-11-20T08:56:04;9.10;99.90
10583;DHT22;33679;51.218;6.786;2022-11-20T08:58:33;9.10;99.90
10583;DHT22;33679;51.218;6.786;2022-11-20T09:01:01;9.10;99.90
10583;DHT22;33679;51.218;6.786;2022-11-20T09:03:29;9.00;99.90
10583;DHT22;33679;51.218;6.786;2022-11-20T09:06:03;9.00;99.90
10583;DHT22;33679;51.218;6.786;2022-11-20T09:08:31;9.10;99.90
10583;DHT22;33679;51.218;6.786;2022-11-20T09:11:03;9.10;99.90
10583;DHT22;33679;51.218;6.786;2022-11-20T09:13:33;9.20;99.90
10583;DHT22;33679;51.218;6.786;2022-11-20T09:16:05;9.20;99.90
10583;DHT22;33679;51.218;6.786;2022-11-20T09:18:35;9.30;99.90
10583;DHT22;33679;51.218;6.786;2022-11-20T09:21:09;9.30;99.90
10583;DHT22;33679;51.218;6.786;2022-11-20T09:23:38;9.30;99.90
10583;DHT22;33679;51.218;6.786;2022-11-20T09:26:09;9.30;99.90
10583;DHT22;33679;51.218;6.786;2022-11-20T09:28:37;9.30;99.90
10583;DHT22;33679;51.218;6.786;2022-11-20T09:31:06;9.30;99.90
10583;DHT22;33679;51.218;6.786;2022-11-20T09:33:35;9.40;99.90
10583;DHT22;33679;51.218;6.786;2022-11-20T09:36:02;9.40;99.90
10583;DHT22;33679;51.218;6.786;2022-11-20T09:38:31;9.40;99.90
10583;DHT22;33679;51.218;6.786;2022-11-20T09:41:05;9.40;99.90
10583;DHT22;33679;51.218;6.786;2022-11-20T09:43:44;9.40;99.90
10583;DHT22;33679;51.218;6.786;2022-11-20T09:46:20;9.40;99.90
10583;DHT22;33679;51.218;6.786;2022-11-20T09:51:57;9.50;99.90
10583;DHT22;33679;51.218;6.786;2022-11-20T09:54:30;9.50;99.90
10583;DHT22;33679;51.218;6.786;2022-11-20T09:57:00;9.50;99.90
10583;DHT22;33679;51.218;6.786;2022-11-20T09:59:33;9.50;99.90
10583;DHT22;33679;51.218;6.786;2022-11-20T10:02:16;9.60;99.90
10583;DHT22;33679;51.218;6.786;2022-11-20T10:04:53;9.70;99.90
10583;DHT22;33679;51.218;6.786;2022-11-20T10:07:26;9.70;99.90
10583;DHT22;33679;51.218;6.786;2022-11-20T10:09:58;9.70;99.90
10583;DHT22;33679;51.218;6.786;2022-11-20T10:12:34;9.70;99.90
10583;DHT22;33679;51.218;6.786;2022-11-20T10:15:17;9.70;99.90
10583;DHT22;33679;51.218;6.786;2022-11-20T10:18:09;9.80;99.90
10583;DHT22;33679;51.218;6.786;2022-11-20T10:20:44;9.80;99.90
10583;DHT22;33679;51.218;6.786;2022-11-20T10:23:48;9.80;99.90
10583;DHT22;33679;51.218;6.786;2022-11-20T10:26:25;9.70;99.90
10583;DHT22;33679;51.218;6.786;2022-11-20T10:29:11;9.70;99.90
10583;DHT22;33679;51.218;6.786;2022-11-20T10:31:41;9.70;99.90
10583;DHT22;33679;51.218;6.786;2022-11-20T10:34:17;9.70;99.90
10583;DHT22;33679;51.218;6.786;2022-11-20T10:36:54;9.70;99.90
10583;DHT22;33679;51.218;6.786;2022-11-20T10:39:29;9.70;99.90
10583;DHT22;33679;51.218;6.786;2022-11-20T10:42:00;9.70;99.90
10583;DHT22;33679;51.218;6.786;2022-11-20T10:44:29;9.70;99.90
10583;DHT22;33679;51.218;6.786;2022-11-20T10:47:15;9.70;99.90
10583;DHT22;33679;51.218;6.786;2022-11-20T10:49:44;9.60;99.90
10583;DHT22;33679;51.218;6.786;2022-11-20T10:52:19;9.60;99.90
10583;DHT22;33679;51.218;6.786;2022-11-20T10:54:58;9.70;99.90
10583;DHT22;33679;51.218;6.786;2022-11-20T10:57:47;9.70;99.90
10583;DHT22;33679;51.218;6.786;2022-11-20T11:00:16;9.70;99.90
10583;DHT22;33679;51.218;6.786;2022-11-20T11:02:47;9.70;99.90
10583;DHT22;33679;51.218;6.786;2022-11-20T11:05:32;9.60;99.90
10583;DHT22;33679;51.218;6.786;2022-11-20T11:08:00;9.60;99.90
10583;DHT22;33679;51.218;6.786;2022-11-20T11:10:35;9.60;99.90
10583;DHT22;33679;51.218;6.786;2022-11-20T11:13:05;9.60;99.90
10583;DHT22;33679;51.218;6.786;2022-11-20T11:15:38;9.60;99.90
10583;DHT22;33679;51.218;6.786;2022-11-20T11:18:09;9.60;99.90
10583;DHT22;33679;51.218;6.786;2022-11-20T11:20:37;9.70;99.90
10583;DHT22;33679;51.218;6.786;2022-11-20T11:23:04;9.70;99.90
10583;DHT22;33679;51.218;6.786;2022-11-20T11:25:36;9.70;99.90
10583;DHT22;33679;51.218;6.786;2022-11-20T11:28:20;9.70;99.90
10583;DHT22;33679;51.218;6.786;2022-11-20T11:30:50;9.70;99.90
10583;DHT22;33679;51.218;6.786;2022-11-20T11:33:24;9.70;99.90
10583;DHT22;33679;51.218;6.786;2022-11-20T11:35:53;9.80;99.90
10583;DHT22;33679;51.218;6.786;2022-11-20T11:38:28;9.80;99.90
10583;DHT22;33679;51.218;6.786;2022-11-20T11:40:59;9.70;99.90
10583;DHT22;33679;51.218;6.786;2022-11-20T11:43:31;9.70;99.90
10583;DHT22;33679;51.218;6.786;2022-11-20T11:46:30;9.70;99.90
10583;DHT22;33679;51.218;6.786;2022-11-20T11:49:00;9.80;99.90
10583;DHT22;33679;51.218;6.786;2022-11-20T11:51:34;9.80;99.90
10583;DHT22;33679;51.218;6.786;2022-11-20T11:54:10;9.70;99.90
10583;DHT22;33679;51.218;6.786;2022-11-20T11:56:43;9.80;99.90
10583;DHT22;33679;51.218;6.786;2022-11-20T11:59:16;9.80;99.90
10583;DHT22;33679;51.218;6.786;2022-11-20T12:01:54;9.80;99.90
10583;DHT22;33679;51.218;6.786;2022-11-20T12:04:31;9.90;99.90
10583;DHT22;33679;51.218;6.786;2022-11-20T12:07:10;9.90;99.90
10583;DHT22;33679;51.218;6.786;2022-11-20T12:09:43;9.90;99.90
10583;DHT22;33679;51.218;6.786;2022-11-20T12:12:17;9.90;99.90
10583;DHT22;33679;51.218;6.786;2022-11-20T12:14:53;10.00;99.90
10583;DHT22;33679;51.218;6.786;2022-11-20T12:17:21;10.10;99.90
10583;DHT22;33679;51.218;6.786;2022-11-20T12:19:50;10.10;99.90
10583;DHT22;33679;51.218;6.786;2022-11-20T12:22:28;10.10;99.90
10583;DHT22;33679;51.218;6.786;2022-11-20T12:25:01;10.20;99.90
10583;DHT22;33679;51.218;6.786;2022-11-20T12:27:44;10.20;99.90
10583;DHT22;33679;51.218;6.786;2022-11-20T12:30:19;10.20;99.90
10583;DHT22;33679;51.218;6.786;2022-11-20T12:36:06;10.30;99.90
10583;DHT22;33679;51.218;6.786;2022-11-20T12:38:56;10.40;99.90
10583;DHT22;33679;51.218;6.786;2022-11-20T12:41:58;10.40;99.90
10583;DHT22;33679;51.218;6.786;2022-11-20T12:48:16;10.50;99.90
10583;DHT22;33679;51.218;6.786;2022-11-20T12:50:52;10.50;99.90
10583;DHT22;33679;51.218;6.786;2022-11-20T12:53:29;10.50;99.90
10583;DHT22;33679;51.218;6.786;2022-11-20T12:56:05;10.50;99.90
10583;DHT22;33679;51.218;6.786;2022-11-20T12:58:41;10.50;99.90
10583;DHT22;33679;51.218;6.786;2022-11-20T13:01:20;10.50;99.90
10583;DHT22;33679;51.218;6.786;2022-11-20T13:04:09;10.50;99.90
10583;DHT22;33679;51.218;6.786;2022-11-20T13:06:40;10.50;99.90
10583;DHT22;33679;51.218;6.786;2022-11-20T13:09:11;10.50;99.90
10583;DHT22;33679;51.218;6.786;2022-11-20T13:11:43;10.40;99.90
10583;DHT22;33679;51.218;6.786;2022-11-20T13:14:21;10.40;99.90
10583;DHT22;33679;51.218;6.786;2022-11-20T13:16:55;10.40;99.90
10583;DHT22;33679;51.218;6.786;2022-11-20T13:19:27;10.40;99.90
10583;DHT22;33679;51.218;6.786;2022-11-20T13:21:55;10.40;99.90
10583;DHT22;33679;51.218;6.786;2022-11-20T13:24:26;10.50;99.90
10583;DHT22;33679;51.218;6.786;2022-11-20T13:27:01;10.40;99.90
10583;DHT22;33679;51.218;6.786;2022-11-20T13:29:30;10.40;99.90
10583;DHT22;33679;51.218;6.786;2022-11-20T13:32:12;10.40;99.90
10583;DHT22;33679;51.218;6.786;2022-11-20T13:34:52;10.40;99.90
10583;DHT22;33679;51.218;6.786;2022-11-20T13:37:28;10.40;99.90
10583;DHT22;33679;51.218;6.786;2022-11-20T13:40:20;10.40;99.90
10583;DHT22;33679;51.218;6.786;2022-11-20T13:42:56;10.40;99.90
10583;DHT22;33679;51.218;6.786;2022-11-20T13:45:26;10.30;99.90
10583;DHT22;33679;51.218;6.786;2022-11-20T13:48:02;10.30;99.90
10583;DHT22;33679;51.218;6.786;2022-11-20T13:50:51;10.40;99.90
10583;DHT22;33679;51.218;6.786;2022-11-20T13:53:36;10.40;99.90
10583;DHT22;33679;51.218;6.786;2022-11-20T13:56:09;10.40;99.90
10583;DHT22;33679;51.218;6.786;2022-11-20T13:58:55;10.40;99.90
10583;DHT22;33679;51.218;6.786;2022-11-20T14:01:28;10.40;99.90
10583;DHT22;33679;51.218;6.786;2022-11-20T14:03:57;10.30;99.90
10583;DHT22;33679;51.218;6.786;2022-11-20T14:06:41;10.30;99.90
10583;DHT22;33679;51.218;6.786;2022-11-20T14:09:11;10.30;99.90
10583;DHT22;33679;51.218;6.786;2022-11-20T14:11:46;10.30;99.90
10583;DHT22;33679;51.218;6.786;2022-11-20T14:14:17;10.30;99.90
10583;DHT22;33679;51.218;6.786;2022-11-20T14:16:45;10.30;99.90
10583;DHT22;33679;51.218;6.786;2022-11-20T14:19:28;10.30;99.90
10583;DHT22;33679;51.218;6.786;2022-11-20T14:22:18;10.30;99.90
10583;DHT22;33679;51.218;6.786;2022-11-20T14:25:04;10.40;99.90
10583;DHT22;33679;51.218;6.786;2022-11-20T14:27:38;10.40;99.90
10583;DHT22;33679;51.218;6.786;2022-11-20T14:30:12;10.40;99.90
10583;DHT22;33679;51.218;6.786;2022-11-20T14:32:42;10.40;99.90
10583;DHT22;33679;51.218;6.786;2022-11-20T14:35:19;10.40;99.90
10583;DHT22;33679;51.218;6.786;2022-11-20T14:37:51;10.30;99.90
10583;DHT22;33679;51.218;6.786;2022-11-20T14:40:23;10.40;99.90
10583;DHT22;33679;51.218;6.786;2022-11-20T14:42:51;10.30;99.90
10583;DHT22;33679;51.218;6.786;2022-11-20T14:45:21;10.30;99.90
10583;DHT22;33679;51.218;6.786;2022-11-20T14:47:50;10.30;99.90
10583;DHT22;33679;51.218;6.786;2022-11-20T14:50:20;10.30;99.90
10583;DHT22;33679;51.218;6.786;2022-11-20T14:52:55;10.30;99.90
10583;DHT22;33679;51.218;6.786;2022-11-20T14:55:27;10.30;99.90
10583;DHT22;33679;51.218;6.786;2022-11-20T14:58:00;10.20;99.90
10583;DHT22;33679;51.218;6.786;2022-11-20T15:00:29;10.30;99.90
10583;DHT22;33679;51.218;6.786;2022-11-20T15:02:56;10.30;99.90
10583;DHT22;33679;51.218;6.786;2022-11-20T15:05:25;10.30;99.90
10583;DHT22;33679;51.218;6.786;2022-11-20T15:08:08;10.30;99.90
10583;DHT22;33679;51.218;6.786;2022-11-20T15:10:37;10.30;99.90
10583;DHT22;33679;51.218;6.786;2022-11-20T15:13:12;10.20;99.90
10583;DHT22;33679;51.218;6.786;2022-11-20T15:15:45;10.20;99.90
10583;DHT22;33679;51.218;6.786;2022-11-20T15:18:15;10.20;99.90
10583;DHT22;33679;51.218;6.786;2022-11-20T15:20:43;10.10;99.90
10583;DHT22;33679;51.218;6.786;2022-11-20T15:23:16;10.10;99.90
10583;DHT22;33679;51.218;6.786;2022-11-20T15:25:44;10.10;99.90
10583;DHT22;33679;51.218;6.786;2022-11-20T15:28:20;10.10;99.90
10583;DHT22;33679;51.218;6.786;2022-11-20T15:30:50;10.00;99.90
10583;DHT22;33679;51.218;6.786;2022-11-20T15:33:18;10.10;99.90
10583;DHT22;33679;51.218;6.786;2022-11-20T15:35:48;10.10;99.90
10583;DHT22;33679;51.218;6.786;2022-11-20T15:38:17;10.10;99.90
10583;DHT22;33679;51.218;6.786;2022-11-20T15:40:47;10.10;99.90
10583;DHT22;33679;51.218;6.786;2022-11-20T15:43:15;10.10;99.90
10583;DHT22;33679;51.218;6.786;2022-11-20T15:45:44;10.10;99.90
10583;DHT22;33679;51.218;6.786;2022-11-20T15:48:14;10.10;99.90
10583;DHT22;33679;51.218;6.786;2022-11-20T15:50:49;10.10;99.90
10583;DHT22;33679;51.218;6.786;2022-11-20T15:53:19;10.00;99.90
10583;DHT22;33679;51.218;6.786;2022-11-20T15:55:47;10.00;99.90
10583;DHT22;33679;51.218;6.786;2022-11-20T15:58:15;10.00;99.90
10583;DHT22;33679;51.218;6.786;2022-11-20T16:00:43;10.00;99.90
10583;DHT22;33679;51.218;6.786;2022-11-20T16:03:12;10.00;99.90
10583;DHT22;33679;51.218;6.786;2022-11-20T16:05:42;10.00;99.90
10583;DHT22;33679;51.218;6.786;2022-11-20T16:08:09;10.00;99.90
10583;DHT22;33679;51.218;6.786;2022-11-20T16:10:38;10.00;99.90
10583;DHT22;33679;51.218;6.786;2022-11-20T16:13:12;9.90;99.90
10583;DHT22;33679;51.218;6.786;2022-11-20T16:15:59;10.00;99.90
10583;DHT22;33679;51.218;6.786;2022-11-20T16:18:26;10.00;99.90